sensor_id;sensor_type;location;lat;lon;timestamp;P1;durP1;ratioP1;P2;durP2;ratioP2
17935;SDS011;9093;52.062;4.508;2022-08-03T00:02:07;1.87;;;0.70;;
17935;SDS011;9093;52.062;4.508;2022-08-03T00:04:48;2.23;;;0.77;;
17935;SDS011;9093;52.062;4.508;2022-08-03T00:07:28;0.93;;;0.52;;
17935;SDS011;9093;52.062;4.508;2022-08-03T00:10:08;3.33;;;0.85;;
17935;SDS011;9093;52.062;4.508;2022-08-03T00:12:49;1.65;;;0.90;;
17935;SDS011;9093;52.062;4.508;2022-08-03T00:15:29;3.00;;;0.70;;
17935;SDS011;9093;52.062;4.508;2022-08-03T00:18:10;2.63;;;0.98;;
17935;SDS011;9093;52.062;4.508;2022-08-03T00:20:50;2.03;;;0.80;;
17935;SDS011;9093;52.062;4.508;2022-08-03T00:23:30;0.67;;;0.50;;
17935;SDS011;9093;52.062;4.508;2022-08-03T00:26:11;2.42;;;0.63;;
17935;SDS011;9093;52.062;4.508;2022-08-03T00:28:51;1.10;;;0.50;;
17935;SDS011;9093;52.062;4.508;2022-08-03T00:31:31;1.67;;;0.80;;
17935;SDS011;9093;52.062;4.508;2022-08-03T00:34:11;2.40;;;0.90;;
17935;SDS011;9093;52.062;4.508;2022-08-03T00:36:52;1.90;;;0.70;;
17935;SDS011;9093;52.062;4.508;2022-08-03T00:39:32;2.33;;;0.90;;
17935;SDS011;9093;52.062;4.508;2022-08-03T00:42:13;3.58;;;1.25;;
17935;SDS011;9093;52.062;4.508;2022-08-03T00:44:53;4.35;;;1.00;;
17935;SDS011;9093;52.062;4.508;2022-08-03T00:47:33;1.90;;;0.70;;
17935;SDS011;9093;52.062;4.508;2022-08-03T00:50:14;1.00;;;0.60;;
17935;SDS011;9093;52.062;4.508;2022-08-03T00:52:58;3.90;;;0.90;;
17935;SDS011;9093;52.062;4.508;2022-08-03T00:55:39;1.95;;;0.90;;
17935;SDS011;9093;52.062;4.508;2022-08-03T00:58:20;3.13;;;0.75;;
17935;SDS011;9093;52.062;4.508;2022-08-03T01:01:01;2.65;;;0.65;;
17935;SDS011;9093;52.062;4.508;2022-08-03T01:03:43;3.97;;;1.42;;
17935;SDS011;9093;52.062;4.508;2022-08-03T01:06:33;1.53;;;0.70;;
17935;SDS011;9093;52.062;4.508;2022-08-03T01:09:30;0.63;;;0.40;;
17935;SDS011;9093;52.062;4.508;2022-08-03T01:18:44;3.25;;;1.10;;
17935;SDS011;9093;52.062;4.508;2022-08-03T01:21:32;0.90;;;0.45;;
17935;SDS011;9093;52.062;4.508;2022-08-03T01:27:20;2.00;;;1.10;;
17935;SDS011;9093;52.062;4.508;2022-08-03T01:30:08;2.72;;;1.08;;
17935;SDS011;9093;52.062;4.508;2022-08-03T01:35:37;5.10;;;0.90;;
17935;SDS011;9093;52.062;4.508;2022-08-03T01:38:40;1.70;;;0.60;;
17935;SDS011;9093;52.062;4.508;2022-08-03T01:41:32;3.65;;;1.08;;
17935;SDS011;9093;52.062;4.508;2022-08-03T01:44:14;1.10;;;0.70;;
17935;SDS011;9093;52.062;4.508;2022-08-03T01:46:57;2.05;;;0.77;;
17935;SDS011;9093;52.062;4.508;2022-08-03T01:55:03;1.33;;;0.80;;
17935;SDS011;9093;52.062;4.508;2022-08-03T01:57:46;1.00;;;0.73;;
17935;SDS011;9093;52.062;4.508;2022-08-03T02:00:29;2.78;;;0.80;;
17935;SDS011;9093;52.062;4.508;2022-08-03T02:03:11;0.93;;;0.60;;
17935;SDS011;9093;52.062;4.508;2022-08-03T02:05:52;1.40;;;0.68;;
17935;SDS011;9093;52.062;4.508;2022-08-03T02:08:36;2.13;;;0.73;;
17935;SDS011;9093;52.062;4.508;2022-08-03T02:11:19;2.28;;;0.80;;
17935;SDS011;9093;52.062;4.508;2022-08-03T02:14:01;5.28;;;0.80;;
17935;SDS011;9093;52.062;4.508;2022-08-03T02:16:44;1.50;;;0.70;;
17935;SDS011;9093;52.062;4.508;2022-08-03T02:19:25;2.75;;;0.65;;
17935;SDS011;9093;52.062;4.508;2022-08-03T02:22:07;3.92;;;1.33;;
17935;SDS011;9093;52.062;4.508;2022-08-03T02:24:49;2.53;;;1.00;;
17935;SDS011;9093;52.062;4.508;2022-08-03T02:27:30;4.88;;;0.85;;
17935;SDS011;9093;52.062;4.508;2022-08-03T02:30:14;1.90;;;0.90;;
17935;SDS011;9093;52.062;4.508;2022-08-03T02:32:55;1.08;;;0.52;;
17935;SDS011;9093;52.062;4.508;2022-08-03T02:35:38;3.75;;;0.82;;
17935;SDS011;9093;52.062;4.508;2022-08-03T02:38:20;6.05;;;0.90;;
17935;SDS011;9093;52.062;4.508;2022-08-03T02:41:06;2.60;;;0.63;;
17935;SDS011;9093;52.062;4.508;2022-08-03T02:43:53;3.28;;;0.65;;
17935;SDS011;9093;52.062;4.508;2022-08-03T02:46:36;2.15;;;0.60;;
17935;SDS011;9093;52.062;4.508;2022-08-03T02:49:18;4.13;;;0.98;;
17935;SDS011;9093;52.062;4.508;2022-08-03T02:52:00;1.30;;;0.60;;
17935;SDS011;9093;52.062;4.508;2022-08-03T02:54:41;1.95;;;0.82;;
17935;SDS011;9093;52.062;4.508;2022-08-03T02:57:24;1.98;;;0.80;;
17935;SDS011;9093;52.062;4.508;2022-08-03T03:00:07;1.35;;;0.60;;
17935;SDS011;9093;52.062;4.508;2022-08-03T03:02:48;2.90;;;0.70;;
17935;SDS011;9093;52.062;4.508;2022-08-03T03:05:29;1.42;;;0.75;;
17935;SDS011;9093;52.062;4.508;2022-08-03T03:08:11;8.50;;;1.02;;
17935;SDS011;9093;52.062;4.508;2022-08-03T03:10:58;0.95;;;0.57;;
17935;SDS011;9093;52.062;4.508;2022-08-03T03:13:40;1.00;;;0.60;;
17935;SDS011;9093;52.062;4.508;2022-08-03T03:16:22;1.90;;;0.80;;
17935;SDS011;9093;52.062;4.508;2022-08-03T03:19:04;4.18;;;1.00;;
17935;SDS011;9093;52.062;4.508;2022-08-03T03:21:47;1.58;;;0.60;;
17935;SDS011;9093;52.062;4.508;2022-08-03T03:24:29;2.90;;;1.10;;
17935;SDS011;9093;52.062;4.508;2022-08-03T03:27:09;3.85;;;0.82;;
17935;SDS011;9093;52.062;4.508;2022-08-03T03:29:50;1.80;;;0.85;;
17935;SDS011;9093;52.062;4.508;2022-08-03T03:32:31;2.55;;;0.85;;
17935;SDS011;9093;52.062;4.508;2022-08-03T03:35:12;1.70;;;0.73;;
17935;SDS011;9093;52.062;4.508;2022-08-03T03:37:53;4.78;;;1.30;;
17935;SDS011;9093;52.062;4.508;2022-08-03T03:40:34;2.25;;;0.82;;
17935;SDS011;9093;52.062;4.508;2022-08-03T03:43:15;4.25;;;1.50;;
17935;SDS011;9093;52.062;4.508;2022-08-03T03:45:57;4.15;;;0.90;;
17935;SDS011;9093;52.062;4.508;2022-08-03T03:48:38;1.70;;;0.70;;
17935;SDS011;9093;52.062;4.508;2022-08-03T03:51:18;3.70;;;0.77;;
17935;SDS011;9093;52.062;4.508;2022-08-03T03:54:00;3.75;;;1.15;;
17935;SDS011;9093;52.062;4.508;2022-08-03T03:56:41;2.43;;;0.67;;
17935;SDS011;9093;52.062;4.508;2022-08-03T03:59:21;1.75;;;0.90;;
17935;SDS011;9093;52.062;4.508;2022-08-03T04:02:02;3.70;;;0.90;;
17935;SDS011;9093;52.062;4.508;2022-08-03T04:04:42;1.63;;;0.65;;
17935;SDS011;9093;52.062;4.508;2022-08-03T04:08:05;4.93;;;0.60;;
17935;SDS011;9093;52.062;4.508;2022-08-03T04:14:11;1.17;;;0.75;;
17935;SDS011;9093;52.062;4.508;2022-08-03T04:16:59;0.85;;;0.52;;
17935;SDS011;9093;52.062;4.508;2022-08-03T04:19:46;2.95;;;1.27;;
17935;SDS011;9093;52.062;4.508;2022-08-03T04:22:31;1.73;;;1.00;;
17935;SDS011;9093;52.062;4.508;2022-08-03T04:25:13;3.53;;;0.98;;
17935;SDS011;9093;52.062;4.508;2022-08-03T04:27:59;7.35;;;1.10;;
17935;SDS011;9093;52.062;4.508;2022-08-03T04:30:40;2.15;;;1.10;;
17935;SDS011;9093;52.062;4.508;2022-08-03T04:33:27;2.42;;;1.00;;
17935;SDS011;9093;52.062;4.508;2022-08-03T04:36:11;7.45;;;1.00;;
17935;SDS011;9093;52.062;4.508;2022-08-03T04:39:02;2.58;;;0.93;;
17935;SDS011;9093;52.062;4.508;2022-08-03T04:41:45;2.03;;;0.95;;
17935;SDS011;9093;52.062;4.508;2022-08-03T04:44:27;3.13;;;1.00;;
17935;SDS011;9093;52.062;4.508;2022-08-03T04:47:10;1.80;;;0.90;;
17935;SDS011;9093;52.062;4.508;2022-08-03T04:49:50;1.05;;;0.80;;
17935;SDS011;9093;52.062;4.508;2022-08-03T04:52:32;10.18;;;1.33;;
17935;SDS011;9093;52.062;4.508;2022-08-03T04:58:09;5.50;;;0.80;;
17935;SDS011;9093;52.062;4.508;2022-08-03T05:00:51;6.32;;;1.63;;
17935;SDS011;9093;52.062;4.508;2022-08-03T05:03:31;5.57;;;1.03;;
17935;SDS011;9093;52.062;4.508;2022-08-03T05:06:12;0.95;;;0.70;;
17935;SDS011;9093;52.062;4.508;2022-08-03T05:08:52;2.58;;;1.00;;
17935;SDS011;9093;52.062;4.508;2022-08-03T05:11:32;2.75;;;1.10;;
17935;SDS011;9093;52.062;4.508;2022-08-03T05:14:13;5.63;;;1.10;;
17935;SDS011;9093;52.062;4.508;2022-08-03T05:16:53;2.42;;;1.27;;
17935;SDS011;9093;52.062;4.508;2022-08-03T05:19:33;3.03;;;1.53;;
17935;SDS011;9093;52.062;4.508;2022-08-03T05:22:14;2.30;;;1.23;;
17935;SDS011;9093;52.062;4.508;2022-08-03T05:24:54;3.53;;;1.10;;
17935;SDS011;9093;52.062;4.508;2022-08-03T05:27:35;4.05;;;0.95;;
17935;SDS011;9093;52.062;4.508;2022-08-03T05:30:15;5.22;;;1.23;;
17935;SDS011;9093;52.062;4.508;2022-08-03T05:32:55;2.17;;;1.13;;
17935;SDS011;9093;52.062;4.508;2022-08-03T05:35:36;3.70;;;1.30;;
17935;SDS011;9093;52.062;4.508;2022-08-03T05:38:18;3.08;;;1.48;;
17935;SDS011;9093;52.062;4.508;2022-08-03T05:40:58;3.65;;;1.10;;
17935;SDS011;9093;52.062;4.508;2022-08-03T05:43:39;4.13;;;1.35;;
17935;SDS011;9093;52.062;4.508;2022-08-03T05:46:19;2.25;;;1.02;;
17935;SDS011;9093;52.062;4.508;2022-08-03T05:49:02;6.07;;;2.13;;
17935;SDS011;9093;52.062;4.508;2022-08-03T05:51:43;5.10;;;1.60;;
17935;SDS011;9093;52.062;4.508;2022-08-03T05:54:24;4.07;;;1.30;;
17935;SDS011;9093;52.062;4.508;2022-08-03T05:57:04;4.77;;;1.77;;
17935;SDS011;9093;52.062;4.508;2022-08-03T05:59:45;3.20;;;1.13;;
17935;SDS011;9093;52.062;4.508;2022-08-03T06:02:25;4.77;;;1.57;;
17935;SDS011;9093;52.062;4.508;2022-08-03T06:05:06;3.05;;;1.67;;
17935;SDS011;9093;52.062;4.508;2022-08-03T06:07:47;7.78;;;2.00;;
17935;SDS011;9093;52.062;4.508;2022-08-03T06:10:27;4.57;;;1.90;;
17935;SDS011;9093;52.062;4.508;2022-08-03T06:13:08;5.73;;;2.53;;
17935;SDS011;9093;52.062;4.508;2022-08-03T06:15:48;9.70;;;2.22;;
17935;SDS011;9093;52.062;4.508;2022-08-03T06:18:28;3.17;;;1.57;;
17935;SDS011;9093;52.062;4.508;2022-08-03T06:21:08;3.05;;;1.92;;
17935;SDS011;9093;52.062;4.508;2022-08-03T06:23:49;6.63;;;2.47;;
17935;SDS011;9093;52.062;4.508;2022-08-03T06:26:29;5.50;;;2.55;;
17935;SDS011;9093;52.062;4.508;2022-08-03T06:29:11;5.63;;;2.35;;
17935;SDS011;9093;52.062;4.508;2022-08-03T06:31:51;2.25;;;1.90;;
17935;SDS011;9093;52.062;4.508;2022-08-03T06:34:32;4.90;;;2.80;;
17935;SDS011;9093;52.062;4.508;2022-08-03T06:37:12;5.43;;;2.40;;
17935;SDS011;9093;52.062;4.508;2022-08-03T06:39:52;4.57;;;2.27;;
17935;SDS011;9093;52.062;4.508;2022-08-03T06:42:33;5.85;;;2.78;;
17935;SDS011;9093;52.062;4.508;2022-08-03T06:45:13;7.30;;;2.70;;
17935;SDS011;9093;52.062;4.508;2022-08-03T06:48:03;2.57;;;1.80;;
17935;SDS011;9093;52.062;4.508;2022-08-03T06:50:48;7.80;;;2.20;;
17935;SDS011;9093;52.062;4.508;2022-08-03T06:53:29;5.77;;;1.93;;
17935;SDS011;9093;52.062;4.508;2022-08-03T06:56:09;4.97;;;1.70;;
17935;SDS011;9093;52.062;4.508;2022-08-03T06:58:50;2.97;;;1.88;;
17935;SDS011;9093;52.062;4.508;2022-08-03T07:01:30;3.88;;;1.77;;
17935;SDS011;9093;52.062;4.508;2022-08-03T07:04:10;6.07;;;2.13;;
17935;SDS011;9093;52.062;4.508;2022-08-03T07:06:51;5.53;;;1.97;;
17935;SDS011;9093;52.062;4.508;2022-08-03T07:09:31;6.90;;;2.42;;
17935;SDS011;9093;52.062;4.508;2022-08-03T07:12:11;3.40;;;2.17;;
17935;SDS011;9093;52.062;4.508;2022-08-03T07:14:52;4.60;;;2.43;;
17935;SDS011;9093;52.062;4.508;2022-08-03T07:17:33;9.18;;;2.88;;
17935;SDS011;9093;52.062;4.508;2022-08-03T07:20:14;4.35;;;2.88;;
17935;SDS011;9093;52.062;4.508;2022-08-03T07:22:56;6.13;;;2.63;;
17935;SDS011;9093;52.062;4.508;2022-08-03T07:25:36;4.25;;;2.25;;
17935;SDS011;9093;52.062;4.508;2022-08-03T07:28:16;7.37;;;2.47;;
17935;SDS011;9093;52.062;4.508;2022-08-03T07:30:57;5.85;;;2.58;;
17935;SDS011;9093;52.062;4.508;2022-08-03T07:33:38;3.92;;;2.58;;
17935;SDS011;9093;52.062;4.508;2022-08-03T07:36:18;4.57;;;2.80;;
17935;SDS011;9093;52.062;4.508;2022-08-03T07:38:58;2.43;;;2.23;;
17935;SDS011;9093;52.062;4.508;2022-08-03T07:41:39;5.57;;;2.40;;
17935;SDS011;9093;52.062;4.508;2022-08-03T07:44:19;5.27;;;2.40;;
17935;SDS011;9093;52.062;4.508;2022-08-03T07:46:59;5.00;;;2.40;;
17935;SDS011;9093;52.062;4.508;2022-08-03T07:49:40;3.57;;;2.40;;
17935;SDS011;9093;52.062;4.508;2022-08-03T07:52:20;7.35;;;2.80;;
17935;SDS011;9093;52.062;4.508;2022-08-03T07:55:20;2.88;;;2.03;;
17935;SDS011;9093;52.062;4.508;2022-08-03T08:00:43;10.20;;;2.70;;
17935;SDS011;9093;52.062;4.508;2022-08-03T08:03:24;3.05;;;2.30;;
17935;SDS011;9093;52.062;4.508;2022-08-03T08:06:05;4.30;;;2.45;;
17935;SDS011;9093;52.062;4.508;2022-08-03T08:08:45;3.73;;;2.23;;
17935;SDS011;9093;52.062;4.508;2022-08-03T08:11:26;3.35;;;2.47;;
17935;SDS011;9093;52.062;4.508;2022-08-03T08:14:06;4.05;;;2.15;;
17935;SDS011;9093;52.062;4.508;2022-08-03T08:16:47;8.60;;;2.70;;
17935;SDS011;9093;52.062;4.508;2022-08-03T08:19:28;5.18;;;2.35;;
17935;SDS011;9093;52.062;4.508;2022-08-03T08:22:08;6.47;;;2.93;;
17935;SDS011;9093;52.062;4.508;2022-08-03T08:24:49;4.77;;;2.80;;
17935;SDS011;9093;52.062;4.508;2022-08-03T08:27:29;4.80;;;2.80;;
17935;SDS011;9093;52.062;4.508;2022-08-03T08:30:09;3.57;;;2.63;;
17935;SDS011;9093;52.062;4.508;2022-08-03T08:32:51;5.18;;;2.67;;
17935;SDS011;9093;52.062;4.508;2022-08-03T08:35:31;10.23;;;2.55;;
17935;SDS011;9093;52.062;4.508;2022-08-03T08:38:11;3.60;;;2.80;;
17935;SDS011;9093;52.062;4.508;2022-08-03T08:40:54;5.13;;;2.70;;
17935;SDS011;9093;52.062;4.508;2022-08-03T08:43:34;6.07;;;3.17;;
17935;SDS011;9093;52.062;4.508;2022-08-03T08:46:15;6.10;;;3.20;;
17935;SDS011;9093;52.062;4.508;2022-08-03T08:48:56;3.65;;;2.78;;
17935;SDS011;9093;52.062;4.508;2022-08-03T08:51:38;5.30;;;2.92;;
17935;SDS011;9093;52.062;4.508;2022-08-03T08:54:22;5.38;;;2.65;;
17935;SDS011;9093;52.062;4.508;2022-08-03T08:57:03;6.57;;;2.70;;
17935;SDS011;9093;52.062;4.508;2022-08-03T08:59:45;6.00;;;3.07;;
17935;SDS011;9093;52.062;4.508;2022-08-03T09:02:28;9.27;;;2.95;;
17935;SDS011;9093;52.062;4.508;2022-08-03T09:05:13;4.68;;;3.47;;
17935;SDS011;9093;52.062;4.508;2022-08-03T09:07:54;4.53;;;2.45;;
17935;SDS011;9093;52.062;4.508;2022-08-03T09:10:35;6.47;;;2.97;;
17935;SDS011;9093;52.062;4.508;2022-08-03T09:13:15;3.83;;;2.67;;
17935;SDS011;9093;52.062;4.508;2022-08-03T09:16:12;8.15;;;3.55;;
17935;SDS011;9093;52.062;4.508;2022-08-03T09:19:00;4.90;;;2.47;;
17935;SDS011;9093;52.062;4.508;2022-08-03T09:22:08;7.63;;;3.03;;
17935;SDS011;9093;52.062;4.508;2022-08-03T09:24:53;5.47;;;2.97;;
17935;SDS011;9093;52.062;4.508;2022-08-03T09:27:42;6.60;;;3.05;;
17935;SDS011;9093;52.062;4.508;2022-08-03T09:30:23;4.68;;;2.63;;
17935;SDS011;9093;52.062;4.508;2022-08-03T09:33:05;3.25;;;2.17;;
17935;SDS011;9093;52.062;4.508;2022-08-03T09:35:47;8.50;;;3.03;;
17935;SDS011;9093;52.062;4.508;2022-08-03T09:38:31;4.47;;;2.63;;
17935;SDS011;9093;52.062;4.508;2022-08-03T09:41:16;3.77;;;2.33;;
17935;SDS011;9093;52.062;4.508;2022-08-03T09:43:57;4.43;;;2.42;;
17935;SDS011;9093;52.062;4.508;2022-08-03T09:46:47;5.57;;;2.92;;
17935;SDS011;9093;52.062;4.508;2022-08-03T09:49:37;4.20;;;2.33;;
17935;SDS011;9093;52.062;4.508;2022-08-03T09:55:06;4.88;;;2.60;;
17935;SDS011;9093;52.062;4.508;2022-08-03T09:58:02;4.75;;;2.47;;
17935;SDS011;9093;52.062;4.508;2022-08-03T10:01:01;2.53;;;2.10;;
17935;SDS011;9093;52.062;4.508;2022-08-03T10:03:45;3.47;;;2.63;;
17935;SDS011;9093;52.062;4.508;2022-08-03T10:06:37;5.28;;;2.28;;
17935;SDS011;9093;52.062;4.508;2022-08-03T10:09:18;4.83;;;2.77;;
17935;SDS011;9093;52.062;4.508;2022-08-03T10:12:06;4.75;;;2.90;;
17935;SDS011;9093;52.062;4.508;2022-08-03T10:14:51;4.75;;;2.40;;
17935;SDS011;9093;52.062;4.508;2022-08-03T10:17:32;4.55;;;2.90;;
17935;SDS011;9093;52.062;4.508;2022-08-03T10:20:13;4.93;;;2.30;;
17935;SDS011;9093;52.062;4.508;2022-08-03T10:22:53;5.50;;;2.50;;
17935;SDS011;9093;52.062;4.508;2022-08-03T10:25:34;3.88;;;2.22;;
17935;SDS011;9093;52.062;4.508;2022-08-03T10:28:17;4.15;;;2.75;;
17935;SDS011;9093;52.062;4.508;2022-08-03T10:30:58;4.15;;;2.47;;
17935;SDS011;9093;52.062;4.508;2022-08-03T10:33:43;11.57;;;2.53;;
17935;SDS011;9093;52.062;4.508;2022-08-03T10:36:29;2.17;;;1.98;;
17935;SDS011;9093;52.062;4.508;2022-08-03T10:39:12;6.65;;;2.63;;
17935;SDS011;9093;52.062;4.508;2022-08-03T10:41:53;3.28;;;2.15;;
17935;SDS011;9093;52.062;4.508;2022-08-03T10:44:38;2.55;;;1.85;;
17935;SDS011;9093;52.062;4.508;2022-08-03T10:47:20;4.97;;;2.08;;
17935;SDS011;9093;52.062;4.508;2022-08-03T10:50:00;3.60;;;2.22;;
17935;SDS011;9093;52.062;4.508;2022-08-03T10:52:58;2.40;;;1.70;;
17935;SDS011;9093;52.062;4.508;2022-08-03T10:55:44;2.10;;;1.48;;
17935;SDS011;9093;52.062;4.508;2022-08-03T11:04:40;7.57;;;2.45;;
17935;SDS011;9093;52.062;4.508;2022-08-03T11:07:22;4.13;;;1.63;;
17935;SDS011;9093;52.062;4.508;2022-08-03T11:10:03;2.27;;;1.37;;
17935;SDS011;9093;52.062;4.508;2022-08-03T11:12:44;3.00;;;1.52;;
17935;SDS011;9093;52.062;4.508;2022-08-03T11:15:31;2.40;;;1.17;;
17935;SDS011;9093;52.062;4.508;2022-08-03T11:18:13;4.18;;;1.35;;
17935;SDS011;9093;52.062;4.508;2022-08-03T11:20:55;3.00;;;1.23;;
17935;SDS011;9093;52.062;4.508;2022-08-03T11:23:44;4.20;;;1.20;;
17935;SDS011;9093;52.062;4.508;2022-08-03T11:26:26;2.35;;;1.10;;
17935;SDS011;9093;52.062;4.508;2022-08-03T11:29:25;5.03;;;1.03;;
17935;SDS011;9093;52.062;4.508;2022-08-03T11:32:06;3.00;;;1.00;;
17935;SDS011;9093;52.062;4.508;2022-08-03T11:35:05;3.15;;;1.20;;
17935;SDS011;9093;52.062;4.508;2022-08-03T11:46:11;4.18;;;1.10;;
17935;SDS011;9093;52.062;4.508;2022-08-03T11:49:04;3.40;;;1.27;;
17935;SDS011;9093;52.062;4.508;2022-08-03T11:51:46;3.63;;;1.30;;
17935;SDS011;9093;52.062;4.508;2022-08-03T11:54:32;2.00;;;0.90;;
17935;SDS011;9093;52.062;4.508;2022-08-03T11:57:12;2.95;;;1.25;;
17935;SDS011;9093;52.062;4.508;2022-08-03T12:03:05;1.83;;;0.90;;
17935;SDS011;9093;52.062;4.508;2022-08-03T12:05:51;2.80;;;1.10;;
17935;SDS011;9093;52.062;4.508;2022-08-03T12:08:32;1.60;;;0.88;;
17935;SDS011;9093;52.062;4.508;2022-08-03T12:11:13;2.63;;;0.93;;
17935;SDS011;9093;52.062;4.508;2022-08-03T12:13:54;4.53;;;0.75;;
17935;SDS011;9093;52.062;4.508;2022-08-03T12:16:35;1.33;;;0.70;;
17935;SDS011;9093;52.062;4.508;2022-08-03T12:19:15;7.72;;;0.90;;
17935;SDS011;9093;52.062;4.508;2022-08-03T12:21:55;1.23;;;0.80;;
17935;SDS011;9093;52.062;4.508;2022-08-03T12:24:42;2.85;;;0.98;;
17935;SDS011;9093;52.062;4.508;2022-08-03T12:27:24;1.80;;;0.93;;
17935;SDS011;9093;52.062;4.508;2022-08-03T12:30:05;4.70;;;0.93;;
17935;SDS011;9093;52.062;4.508;2022-08-03T12:32:46;1.40;;;0.77;;
17935;SDS011;9093;52.062;4.508;2022-08-03T12:35:26;5.30;;;0.90;;
17935;SDS011;9093;52.062;4.508;2022-08-03T12:38:06;3.03;;;0.70;;
17935;SDS011;9093;52.062;4.508;2022-08-03T12:40:57;1.73;;;0.82;;
17935;SDS011;9093;52.062;4.508;2022-08-03T12:43:48;2.58;;;0.75;;
17935;SDS011;9093;52.062;4.508;2022-08-03T12:46:29;2.65;;;0.90;;
17935;SDS011;9093;52.062;4.508;2022-08-03T12:49:14;2.50;;;0.95;;
17935;SDS011;9093;52.062;4.508;2022-08-03T12:51:58;2.05;;;0.70;;
17935;SDS011;9093;52.062;4.508;2022-08-03T12:54:39;3.10;;;0.82;;
17935;SDS011;9093;52.062;4.508;2022-08-03T12:57:19;3.13;;;0.98;;
17935;SDS011;9093;52.062;4.508;2022-08-03T13:00:08;1.40;;;0.70;;
17935;SDS011;9093;52.062;4.508;2022-08-03T13:02:57;3.75;;;0.75;;
17935;SDS011;9093;52.062;4.508;2022-08-03T13:05:43;1.40;;;0.95;;
17935;SDS011;9093;52.062;4.508;2022-08-03T13:08:24;2.28;;;0.77;;
17935;SDS011;9093;52.062;4.508;2022-08-03T13:11:24;2.17;;;0.80;;
17935;SDS011;9093;52.062;4.508;2022-08-03T13:14:05;0.80;;;0.50;;
17935;SDS011;9093;52.062;4.508;2022-08-03T13:16:46;1.90;;;0.70;;
17935;SDS011;9093;52.062;4.508;2022-08-03T13:19:27;2.17;;;0.80;;
17935;SDS011;9093;52.062;4.508;2022-08-03T13:22:15;2.92;;;0.75;;
17935;SDS011;9093;52.062;4.508;2022-08-03T13:24:55;1.40;;;0.55;;
17935;SDS011;9093;52.062;4.508;2022-08-03T13:27:36;1.15;;;0.82;;
17935;SDS011;9093;52.062;4.508;2022-08-03T13:30:17;0.70;;;0.53;;
17935;SDS011;9093;52.062;4.508;2022-08-03T13:32:57;3.47;;;0.73;;
17935;SDS011;9093;52.062;4.508;2022-08-03T13:35:39;2.83;;;0.77;;
17935;SDS011;9093;52.062;4.508;2022-08-03T13:38:19;3.67;;;1.17;;
17935;SDS011;9093;52.062;4.508;2022-08-03T13:40:59;4.65;;;0.73;;
17935;SDS011;9093;52.062;4.508;2022-08-03T13:43:41;2.25;;;0.80;;
17935;SDS011;9093;52.062;4.508;2022-08-03T13:46:21;4.17;;;0.90;;
17935;SDS011;9093;52.062;4.508;2022-08-03T13:49:01;4.53;;;0.98;;
17935;SDS011;9093;52.062;4.508;2022-08-03T13:51:42;3.70;;;1.00;;
17935;SDS011;9093;52.062;4.508;2022-08-03T13:54:22;1.17;;;0.70;;
17935;SDS011;9093;52.062;4.508;2022-08-03T13:57:04;1.88;;;0.80;;
17935;SDS011;9093;52.062;4.508;2022-08-03T13:59:44;1.27;;;0.55;;
17935;SDS011;9093;52.062;4.508;2022-08-03T14:02:24;0.90;;;0.50;;
17935;SDS011;9093;52.062;4.508;2022-08-03T14:05:04;1.00;;;0.50;;
17935;SDS011;9093;52.062;4.508;2022-08-03T14:07:45;0.82;;;0.60;;
17935;SDS011;9093;52.062;4.508;2022-08-03T14:10:27;3.93;;;0.60;;
17935;SDS011;9093;52.062;4.508;2022-08-03T14:13:09;0.57;;;0.40;;
17935;SDS011;9093;52.062;4.508;2022-08-03T14:15:50;1.20;;;0.50;;
17935;SDS011;9093;52.062;4.508;2022-08-03T14:18:30;0.75;;;0.40;;
17935;SDS011;9093;52.062;4.508;2022-08-03T14:21:11;2.55;;;0.68;;
17935;SDS011;9093;52.062;4.508;2022-08-03T14:23:52;0.88;;;0.60;;
17935;SDS011;9093;52.062;4.508;2022-08-03T14:26:32;2.30;;;0.40;;
17935;SDS011;9093;52.062;4.508;2022-08-03T14:29:12;1.98;;;0.70;;
17935;SDS011;9093;52.062;4.508;2022-08-03T14:31:53;1.03;;;0.47;;
17935;SDS011;9093;52.062;4.508;2022-08-03T14:34:33;4.53;;;2.53;;
17935;SDS011;9093;52.062;4.508;2022-08-03T14:37:13;1.03;;;0.77;;
17935;SDS011;9093;52.062;4.508;2022-08-03T14:39:53;2.67;;;1.60;;
17935;SDS011;9093;52.062;4.508;2022-08-03T14:42:34;2.67;;;0.50;;
17935;SDS011;9093;52.062;4.508;2022-08-03T14:45:14;1.67;;;0.63;;
17935;SDS011;9093;52.062;4.508;2022-08-03T14:47:54;0.57;;;0.35;;
17935;SDS011;9093;52.062;4.508;2022-08-03T14:50:35;5.85;;;0.60;;
17935;SDS011;9093;52.062;4.508;2022-08-03T14:53:15;5.00;;;0.60;;
17935;SDS011;9093;52.062;4.508;2022-08-03T14:55:58;2.40;;;0.57;;
17935;SDS011;9093;52.062;4.508;2022-08-03T14:58:38;2.53;;;0.80;;
17935;SDS011;9093;52.062;4.508;2022-08-03T15:01:18;1.52;;;0.38;;
17935;SDS011;9093;52.062;4.508;2022-08-03T15:03:59;0.53;;;0.40;;
17935;SDS011;9093;52.062;4.508;2022-08-03T15:06:39;0.60;;;0.37;;
17935;SDS011;9093;52.062;4.508;2022-08-03T15:09:19;0.97;;;0.40;;
17935;SDS011;9093;52.062;4.508;2022-08-03T15:11:59;1.00;;;0.43;;
17935;SDS011;9093;52.062;4.508;2022-08-03T15:14:40;0.68;;;0.50;;
17935;SDS011;9093;52.062;4.508;2022-08-03T15:17:20;2.73;;;2.23;;
17935;SDS011;9093;52.062;4.508;2022-08-03T15:20:01;2.30;;;1.50;;
17935;SDS011;9093;52.062;4.508;2022-08-03T15:22:41;1.83;;;0.60;;
17935;SDS011;9093;52.062;4.508;2022-08-03T15:25:22;0.95;;;0.40;;
17935;SDS011;9093;52.062;4.508;2022-08-03T15:28:02;0.70;;;0.40;;
17935;SDS011;9093;52.062;4.508;2022-08-03T15:30:43;1.13;;;0.30;;
17935;SDS011;9093;52.062;4.508;2022-08-03T15:33:23;1.20;;;0.57;;
17935;SDS011;9093;52.062;4.508;2022-08-03T15:36:03;1.55;;;0.45;;
17935;SDS011;9093;52.062;4.508;2022-08-03T15:38:44;0.50;;;0.30;;
17935;SDS011;9093;52.062;4.508;2022-08-03T15:41:25;1.03;;;0.63;;
17935;SDS011;9093;52.062;4.508;2022-08-03T15:44:05;2.58;;;0.70;;
17935;SDS011;9093;52.062;4.508;2022-08-03T15:46:46;0.93;;;0.50;;
17935;SDS011;9093;52.062;4.508;2022-08-03T15:49:26;1.13;;;0.45;;
17935;SDS011;9093;52.062;4.508;2022-08-03T15:52:07;1.43;;;0.50;;
17935;SDS011;9093;52.062;4.508;2022-08-03T15:54:47;0.77;;;0.50;;
17935;SDS011;9093;52.062;4.508;2022-08-03T15:57:27;1.48;;;0.35;;
17935;SDS011;9093;52.062;4.508;2022-08-03T16:00:07;1.27;;;0.40;;
17935;SDS011;9093;52.062;4.508;2022-08-03T16:02:48;0.80;;;0.60;;
17935;SDS011;9093;52.062;4.508;2022-08-03T16:05:29;0.75;;;0.68;;
17935;SDS011;9093;52.062;4.508;2022-08-03T16:08:09;2.63;;;0.70;;
17935;SDS011;9093;52.062;4.508;2022-08-03T16:10:49;0.50;;;0.50;;
17935;SDS011;9093;52.062;4.508;2022-08-03T16:13:30;1.17;;;0.50;;
17935;SDS011;9093;52.062;4.508;2022-08-03T16:16:10;0.73;;;0.53;;
17935;SDS011;9093;52.062;4.508;2022-08-03T16:18:50;1.95;;;0.75;;
17935;SDS011;9093;52.062;4.508;2022-08-03T16:21:31;1.37;;;0.60;;
17935;SDS011;9093;52.062;4.508;2022-08-03T16:24:12;0.70;;;0.32;;
17935;SDS011;9093;52.062;4.508;2022-08-03T16:26:52;0.93;;;0.43;;
17935;SDS011;9093;52.062;4.508;2022-08-03T16:29:33;1.33;;;0.60;;
17935;SDS011;9093;52.062;4.508;2022-08-03T16:32:13;5.50;;;0.63;;
17935;SDS011;9093;52.062;4.508;2022-08-03T16:34:54;1.33;;;0.70;;
17935;SDS011;9093;52.062;4.508;2022-08-03T16:37:34;3.80;;;0.50;;
17935;SDS011;9093;52.062;4.508;2022-08-03T16:40:14;0.68;;;0.45;;
17935;SDS011;9093;52.062;4.508;2022-08-03T16:42:55;3.13;;;0.63;;
17935;SDS011;9093;52.062;4.508;2022-08-03T16:45:35;1.67;;;0.60;;
17935;SDS011;9093;52.062;4.508;2022-08-03T16:48:16;1.07;;;0.40;;
17935;SDS011;9093;52.062;4.508;2022-08-03T16:50:57;0.90;;;0.45;;
17935;SDS011;9093;52.062;4.508;2022-08-03T16:53:37;1.25;;;0.32;;
17935;SDS011;9093;52.062;4.508;2022-08-03T16:56:18;1.33;;;0.53;;
17935;SDS011;9093;52.062;4.508;2022-08-03T16:58:58;2.90;;;0.57;;
17935;SDS011;9093;52.062;4.508;2022-08-03T17:01:39;2.03;;;1.02;;
17935;SDS011;9093;52.062;4.508;2022-08-03T17:04:19;0.63;;;0.30;;
17935;SDS011;9093;52.062;4.508;2022-08-03T17:07:00;1.67;;;0.57;;
17935;SDS011;9093;52.062;4.508;2022-08-03T17:09:42;1.08;;;0.30;;
17935;SDS011;9093;52.062;4.508;2022-08-03T17:12:22;1.70;;;0.65;;
17935;SDS011;9093;52.062;4.508;2022-08-03T17:15:03;0.80;;;0.50;;
17935;SDS011;9093;52.062;4.508;2022-08-03T17:17:46;0.80;;;0.40;;
17935;SDS011;9093;52.062;4.508;2022-08-03T17:20:33;0.70;;;0.30;;